Skipton, United Kingdom
Current Conditions -  °F | °C
As of 1:20 AM on Saturday 29 Nov 2014 (Local Time) from EGNM Reporting Station
Drizzle Drizzle  
Wind Chill: 42°   Ceiling: 200
Heat Index: 46°   Visibility: 0.18mi
Dew Point: 46°   Wind: 9mph
Humidity: 100%   Direction: 60°ENE
Pressure: 29.83"   Gusts: NA
Location:  53.96°N, 2.01°W
Report Text: EGNM 290120Z 06008KT 020V100 0300 R14/0600 -DZ FG SCT001 BKN002 08/08 Q1010
Loading
Personal Weather Stations






























Interactive Weather Map New forecast layout! Learn more

10-Day Weather Forecast

Advertisements
Track Severe Weather on mobile